This is the latest recevied weather packets stored in our database for station/object WW3TRG. If no packets are shown the sender has not sent any weather packets the latest 10 day(s).
| Time | Temp. | Humidity | Pressure | Rain* | Wind** | Luminosity | Snow |
|---|---|---|---|---|---|---|---|
| 1777424448 | 12.22° C | 80% | 1016.6 hPa | 0 mm | - | 0 W/m² | - |
| 1777424144 | 12.22° C | 80% | 1016.7 hPa | 0 mm | - | 0 W/m² | - |
| 1777423842 | 12.22° C | 82% | 1016.9 hPa | 0 mm | - | 0 W/m² | - |
| 1777423537 | 12.22° C | 81% | 1017 hPa | 0 mm | - | 0 W/m² | - |
| 1777423232 | 12.22° C | 84% | 1016.9 hPa | 0 mm | - | 0 W/m² | - |
| 1777422927 | 12.22° C | 85% | 1017.1 hPa | 0 mm | - | 0 W/m² | - |
| 1777422623 | 12.22° C | 83% | 1017.4 hPa | 0 mm | - | 0 W/m² | - |
| 1777422319 | 12.22° C | 86% | 1017.2 hPa | 0 mm | - | 0 W/m² | - |
| 1777422019 | 12.22° C | 83% | 1017.3 hPa | 0 mm | - | 0 W/m² | - |
| 1777421714 | 12.78° C | 83% | 1017.2 hPa | 0 mm | - | 0 W/m² | - |
| 1777421409 | 12.22° C | 81% | 1017.5 hPa | 0 mm | - | 0 W/m² | - |
| 1777421106 | 12.78° C | 81% | 1017.2 hPa | 0 mm | - | 0 W/m² | - |
| 1777420802 | 12.78° C | 81% | 1017.3 hPa | 0 mm | - | 0 W/m² | - |
| 1777420498 | 12.78° C | 80% | 1017.1 hPa | 0 mm | - | 0 W/m² | - |
| 1777420195 | 12.78° C | 79% | 1017.2 hPa | 0 mm | - | 0 W/m² | - |
| 1777419890 | 13.33° C | 79% | 1017.1 hPa | 0 mm | - | 0 W/m² | - |
| 1777419588 | 13.33° C | 79% | 1017.2 hPa | 0 mm | - | 1 W/m² | - |
| 1777419287 | 13.33° C | 78% | 1017.2 hPa | 0 mm | - | 1 W/m² | - |
| 1777418984 | 13.33° C | 78% | 1017.4 hPa | 0 mm | - | 2 W/m² | - |
| 1777418678 | 13.89° C | 78% | 1017.1 hPa | 0 mm | - | 2 W/m² | - |
| 1777418375 | 13.89° C | 79% | 1017.1 hPa | 0 mm | - | 6 W/m² | - |
| 1777418071 | 14.44° C | 77% | 1017.1 hPa | 0 mm | - | 9 W/m² | - |
| 1777417768 | 14.44° C | 76% | 1017.2 hPa | 0 mm | - | 11 W/m² | - |
| 1777417463 | 14.44° C | 75% | 1017 hPa | 0 mm | - | 16 W/m² | - |
| 1777417160 | 14.44° C | 74% | 1017.2 hPa | 0 mm | - | 21 W/m² | - |
* Rain latest hour (hover to see other rain measurements)
** Current wind speed in m/s (hover to see current wind gust speed)